Flight Track Log - Related Links

Times and Time Zones

All times are in EDT time to prevent confusion due to time zone crossing. See the SWA4114 flight status page for this flight to view local times or setup timezone preferences in your user account.

Time Position Orientation Groundspeed Altitude Reporting Facility
EDT Latitude Longitude Course Direction KTS MPH feet Rate Location/Type
Wed 06:58:13 AM 41.7667 -87.8000 270° West 174 200 2,500  Level Chicago TRACON
Wed 06:58:57 AM 41.7469 -87.8522 243° Southwest 207 238 4,900 3,029 Climbing Chicago Center
Wed 06:59:58 AM 41.7758 -87.9267 298° West 233 268 7,800 3,124 Climbing Chicago Center
Wed 07:00:58 AM 41.7889 -88.0225 280° West 267 307 11,200 2,727 Climbing Chicago Center
Wed 07:01:59 AM 41.7906 -88.1269 271° West 279 321 13,300 1,869 Climbing Chicago Center
Wed 07:03:00 AM 41.7834 -88.4793 270° West  Level FlightAware Approximate
Wed 07:03:00 AM 41.7917 -88.2561 271° West 346 398 15,000  Level Chicago Center
Wed 07:04:01 AM 41.7931 -88.3956 271° West 372 428 17,800 2,678 Climbing Chicago Center
Wed 07:05:01 AM 41.7939 -88.5311 271° West 376 433 20,400 2,430 Climbing Chicago Center
Wed 07:06:02 AM 41.7947 -88.6764 270° West 389 448 22,700 2,164 Climbing Chicago Center
Wed 07:07:03 AM 41.7894 -88.8275 267° West 401 461 24,800 1,967 Climbing Chicago Center
Wed 07:08:04 AM 41.7778 -88.9808 264° West 413 475 26,700 1,721 Climbing Chicago Center
Wed 07:09:05 AM 41.7681 -89.1367 265° West 421 484 28,300 1,918 Climbing Chicago Center
Wed 07:10:06 AM 41.7550 -89.3286 265° West 430 495 30,600 2,213 Climbing Chicago Center
Wed 07:11:07 AM 41.7450 -89.4836 265° West 422 486 32,800 2,016 Climbing Chicago Center
Wed 07:12:08 AM 41.7350 -89.6158 264° West 409 471 34,700 1,805 Climbing Chicago Center
Wed 07:13:10 AM 41.7247 -89.7589 265° West 394 453 36,500 1,463 Climbing Chicago Center
Wed 07:14:11 AM 41.7150 -89.8983 265° West 383 441 37,700 738 Climbing Chicago Center
Wed 07:15:12 AM 41.7025 -90.0639 264° West 380 437 38,000 146 Climbing Chicago Center
Wed 07:16:14 AM 41.6908 -90.2042 264° West 380 437 38,000  Level Chicago Center
Wed 07:17:15 AM 41.6794 -90.3483 264° West 388 447 38,000  Level Chicago Center
Wed 07:18:16 AM 41.6681 -90.4869 264° West 380 437 38,000  Level Chicago Center
Wed 07:19:18 AM 41.6558 -90.6392 264° West 378 435 38,000  Level Chicago Center
Wed 07:20:19 AM 41.6447 -90.7769 264° West 377 434 38,000  Level Chicago Center
Wed 07:21:21 AM 41.6325 -90.9147 263° West 377 434 38,000  Level Chicago Center
Wed 07:22:22 AM 41.6203 -91.0525 263° West 377 434 38,000  Level Chicago Center
Wed 07:23:24 AM 41.6092 -91.1894 264° West 377 434 38,000  Level Chicago Center
Wed 07:24:25 AM 41.5964 -91.3253 263° West 375 432 38,000  Level Chicago Center
Wed 07:25:27 AM 41.5847 -91.4617 264° West 374 430 38,000  Level Chicago Center
Wed 07:26:28 AM 41.5706 -91.6250 263° West 372 428 38,000  Level Chicago Center
Wed 07:27:30 AM 41.5586 -91.7594 263° West 371 427 38,000  Level Chicago Center
Wed 07:28:32 AM 41.5458 -91.8947 263° West 371 427 38,000  Level Chicago Center
Wed 07:29:33 AM 41.5333 -92.0306 263° West 371 427 38,000  Level Chicago Center
Wed 07:30:35 AM 41.5197 -92.1669 262° West 371 427 38,000  Level Chicago Center
Wed 07:31:37 AM 41.5075 -92.3033 263° West 372 428 38,000  Level Chicago Center
Wed 07:32:39 AM 41.4914 -92.4678 263° West 373 429 38,000  Level Chicago Center
Wed 07:33:40 AM 41.4792 -92.5853 262° West 373 429 38,000  Level Chicago Center
Wed 07:34:33 AM 41.4658 -92.7222 263° West 374 430 38,000  Level Minneapolis Center
Wed 07:35:35 AM 41.4528 -92.8569 263° West 374 430 38,000  Level Minneapolis Center
Wed 07:36:36 AM 41.4389 -92.9911 262° West 374 430 38,000  Level Minneapolis Center
Wed 07:37:37 AM 41.4247 -93.1200 262° West 362 417 38,000  Level Minneapolis Center
Wed 07:38:38 AM 41.4117 -93.2492 262° West 361 415 38,000  Level Minneapolis Center
Wed 07:39:39 AM 41.3950 -93.4036 262° West 358 412 38,000  Level Minneapolis Center
Wed 07:40:41 AM 41.3811 -93.5325 262° West 358 412 38,000  Level Minneapolis Center
Wed 07:41:42 AM 41.3678 -93.6617 262° West 358 412 38,000  Level Minneapolis Center
Wed 07:42:43 AM 41.3533 -93.7922 262° West 358 412 38,000  Level Minneapolis Center
Wed 07:43:44 AM 41.3383 -93.9217 261° West 358 412 38,000  Level Minneapolis Center
Wed 07:44:45 AM 41.3250 -94.0497 262° West 358 412 38,000  Level Minneapolis Center
Wed 07:45:47 AM 41.3100 -94.1803 261° West 357 411 38,000  Level Minneapolis Center
Wed 07:46:48 AM 41.2903 -94.3372 261° West 358 412 38,000  Level Minneapolis Center
Wed 07:47:49 AM 41.2764 -94.4714 262° West 361 415 38,000  Level Minneapolis Center
Wed 07:48:50 AM 41.2611 -94.6039 261° West 362 417 38,000  Level Minneapolis Center
Wed 07:49:52 AM 41.2456 -94.7386 261° West 364 419 38,000  Level Minneapolis Center
Wed 07:50:53 AM 41.2294 -94.8725 261° West 364 419 38,000  Level Minneapolis Center
Wed 07:51:54 AM 41.2128 -95.0064 261° West 365 420 38,000  Level Minneapolis Center
Wed 07:52:56 AM 41.1961 -95.1397 261° West 365 420 38,000  Level Minneapolis Center
Wed 07:53:57 AM 41.1806 -95.2728 261° West 365 420 38,000  Level Minneapolis Center
Wed 07:54:58 AM 41.1631 -95.4072 260° West 366 421 38,000  Level Minneapolis Center
Wed 07:56:00 AM 41.1453 -95.5419 260° West 367 422 38,000  Level Minneapolis Center
Wed 07:57:01 AM 41.1281 -95.6861 261° West 369 425 38,000  Level Minneapolis Center
Wed 07:58:02 AM 41.1086 -95.8142 259° West 370 426 38,000  Level Minneapolis Center
Wed 07:59:04 AM 41.0883 -95.9819 261° West 376 433 38,000  Level Minneapolis Center
Wed 08:00:05 AM 41.0700 -96.1219 260° West 377 434 38,000  Level Minneapolis Center
Wed 08:01:07 AM 41.0531 -96.2592 261° West 377 434 38,000  Level Minneapolis Center
Wed 08:02:08 AM 41.0344 -96.3969 260° West 377 434 38,000  Level Minneapolis Center
Wed 08:03:09 AM 41.0164 -96.5353 260° West 377 434 38,000  Level Minneapolis Center
Wed 08:04:11 AM 40.9981 -96.6717 260° West 377 434 38,000  Level Minneapolis Center
Wed 08:05:13 AM 40.9786 -96.8092 259° West 377 434 38,000  Level Minneapolis Center
Wed 08:06:14 AM 40.9594 -96.9461 260° West 377 434 38,000  Level Minneapolis Center
Wed 08:07:16 AM 40.9400 -97.0858 260° West 379 436 38,000  Level Minneapolis Center
Wed 08:08:18 AM 40.9200 -97.2258 259° West 382 440 38,000  Level Minneapolis Center
Wed 08:09:19 AM 40.8958 -97.3958 259° West 385 443 38,000  Level Minneapolis Center
Wed 08:10:21 AM 40.8767 -97.5356 260° West 385 443 38,000  Level Minneapolis Center
Wed 08:11:23 AM 40.8558 -97.6772 259° West 389 448 38,000  Level Minneapolis Center
Wed 08:12:24 AM 40.8350 -97.8175 259° West 389 448 38,000  Level Minneapolis Center
Wed 08:13:26 AM 40.8150 -97.9581 259° West 389 448 38,000  Level Minneapolis Center
Wed 08:14:28 AM 40.7931 -98.0997 258° West 390 449 38,000  Level Minneapolis Center
Wed 08:15:29 AM 40.7722 -98.2406 259° West 390 449 38,000  Level Minneapolis Center
Wed 08:16:31 AM 40.7506 -98.3825 259° West 390 449 38,000  Level Minneapolis Center
Wed 08:17:33 AM 40.7278 -98.5247 258° West 391 450 38,000  Level Minneapolis Center
Wed 08:18:35 AM 40.7058 -98.6689 259° West 394 453 38,000  Level Minneapolis Center
Wed 08:19:37 AM 40.6797 -98.8428 259° West 397 457 38,000  Level Minneapolis Center
Wed 08:20:38 AM 40.6572 -98.9864 258° West 397 457 38,000  Level Minneapolis Center
Wed 08:21:40 AM 40.6339 -99.1300 258° West 397 457 38,000  Level Minneapolis Center
Wed 08:22:42 AM 40.6117 -99.2744 259° West 398 458 38,000  Level Minneapolis Center
Wed 08:23:44 AM 40.5881 -99.4175 258° West 398 458 38,000  Level Minneapolis Center
Wed 08:24:46 AM 40.5656 -99.5608 258° West 398 458 38,000  Level Minneapolis Center
Wed 08:25:48 AM 40.5419 -99.7047 258° West 398 458 38,000  Level Minneapolis Center
Wed 08:26:49 AM 40.5181 -99.8472 258° West 398 458 38,000  Level Minneapolis Center
Wed 08:27:51 AM 40.4894 -100.0186 258° West 398 458 38,000  Level Minneapolis Center
Wed 08:28:53 AM 40.4647 -100.1631 257° West 401 461 38,000  Level Minneapolis Center
Wed 08:29:55 AM 40.4411 -100.3081 258° West 402 463 38,000  Level Minneapolis Center
Wed 08:30:57 AM 40.4156 -100.4533 257° West 404 465 38,000  Level Minneapolis Center
Wed 08:32:08 AM 40.3853 -100.6289 257° West 408 470 38,000  Level Denver Center
Wed 08:33:09 AM 40.3594 -100.7717 257° West 413 475 38,000  Level Denver Center
Wed 08:34:10 AM 40.3308 -100.9372 257° West 413 475 38,000  Level Denver Center
Wed 08:35:11 AM 40.3061 -101.0786 257° West 414 476 38,000  Level Denver Center
Wed 08:36:12 AM 40.2817 -101.2189 257° West 414 476 38,000  Level Denver Center
Wed 08:37:13 AM 40.2514 -101.3817 256° West 414 476 38,000  Level Denver Center
Wed 08:38:14 AM 40.2272 -101.5208 257° West 412 474 38,000  Level Denver Center
Wed 08:39:15 AM 40.2014 -101.6608 256° West 412 474 38,000  Level Denver Center
Wed 08:40:16 AM 40.1719 -101.8244 257° West 412 474 38,000  Level Denver Center
Wed 08:41:17 AM 40.1458 -101.9639 256° West 412 474 38,000  Level Denver Center
Wed 08:42:18 AM 40.1186 -102.1058 256° West 415 478 38,000  Level Denver Center
Wed 08:43:19 AM 40.0878 -102.2717 256° West 418 481 38,000  Level Denver Center
Wed 08:44:20 AM 40.0619 -102.4142 257° West 418 481 38,000  Level Denver Center
Wed 08:45:22 AM 40.0294 -102.5817 256° West 423 487 38,000  Level Denver Center
Wed 08:46:23 AM 40.0053 -102.7053 256° West 425 489 38,000  Level Denver Center
Wed 08:47:24 AM 39.9694 -102.8850 255° West 425 489 38,000  Level Denver Center
Wed 08:48:25 AM 39.9408 -103.0350 256° West 426 490 38,000  Level Denver Center
Wed 08:49:26 AM 39.9103 -103.1822 255° West 426 490 38,000  Level Denver Center
Wed 08:50:28 AM 39.8817 -103.3306 256° West 425 489 38,000  Level Denver Center
Wed 08:51:29 AM 39.8522 -103.4786 256° West 425 489 38,000  Level Denver Center
Wed 08:52:30 AM 39.8219 -103.6283 255° West 426 490 38,000  Level Denver Center
Wed 08:53:31 AM 39.7914 -103.7781 255° West 426 490 38,000  Level Denver Center
Wed 08:54:32 AM 39.7617 -103.9256 255° West 426 490 38,000  Level Denver Center
Wed 08:55:34 AM 39.7317 -104.0728 255° West 424 488 38,000  Level Denver Center
Wed 08:56:35 AM 39.6953 -104.2486 255° West 423 487 38,000  Level Denver Center
Wed 08:57:36 AM 39.6647 -104.3931 255° West 418 481 38,000  Level Denver Center
Wed 08:58:37 AM 39.6350 -104.5392 255° West 418 481 38,000  Level Denver Center
Wed 08:59:39 AM 39.6039 -104.6767 254° West 417 480 38,000  Level Denver Center
Wed 09:00:40 AM 39.5733 -104.8278 255° West 438 504 38,000  Level Denver Center
Wed 09:01:41 AM 39.5364 -104.9989 254° West 421 484 38,000  Level Denver Center
Wed 09:02:42 AM 39.5053 -105.1442 255° West 419 482 38,000  Level Denver Center
Wed 09:03:43 AM 39.4736 -105.2864 254° West 417 480 38,000  Level Denver Center
Wed 09:04:45 AM 39.4431 -105.4283 254° West 414 476 38,000  Level Denver Center
Wed 09:05:46 AM 39.4119 -105.5703 254° West 413 475 38,000  Level Denver Center
Wed 09:06:47 AM 39.3800 -105.7094 254° West 408 470 38,000  Level Denver Center
Wed 09:07:48 AM 39.3494 -105.8500 254° West 407 468 38,000  Level Denver Center
Wed 09:08:49 AM 39.3178 -105.9889 254° West 406 467 38,000  Level Denver Center
Wed 09:09:51 AM 39.2867 -106.1272 254° West 405 466 38,000  Level Denver Center
Wed 09:10:52 AM 39.2517 -106.2786 253° West 403 464 38,000  Level Denver Center
Wed 09:11:53 AM 39.2217 -106.4164 254° West 403 464 38,000  Level Denver Center
Wed 09:12:55 AM 39.1886 -106.5519 253° West 401 461 38,000  Level Denver Center
Wed 09:13:56 AM 39.1556 -106.6869 253° West 399 459 38,000  Level Denver Center
Wed 09:14:57 AM 39.1233 -106.8233 253° West 398 458 38,000  Level Denver Center
Wed 09:15:58 AM 39.0925 -106.9589 254° West 398 458 38,000  Level Denver Center
Wed 09:17:00 AM 39.0539 -107.1200 253° West 396 456 38,000  Level Denver Center
Wed 09:18:01 AM 39.0225 -107.2556 253° West 396 456 38,000  Level Denver Center
Wed 09:19:02 AM 38.9897 -107.3917 253° West 398 458 38,000  Level Denver Center
Wed 09:20:04 AM 38.9581 -107.5272 253° West 398 458 38,000  Level Denver Center
Wed 09:21:05 AM 38.9233 -107.6647 252° West 399 459 38,000  Level Denver Center
Wed 09:22:06 AM 38.8897 -107.8031 253° West 403 464 38,000  Level Denver Center
Wed 09:23:08 AM 38.8578 -107.9403 253° West 403 464 38,000  Level Denver Center
Wed 09:24:09 AM 38.8228 -108.0786 252° West 403 464 38,000  Level Denver Center
Wed 09:25:10 AM 38.7897 -108.2167 253° West 404 465 38,000  Level Denver Center
Wed 09:26:11 AM 38.7547 -108.3561 252° West 408 470 38,000  Level Denver Center
Wed 09:27:13 AM 38.7200 -108.4961 252° West 409 471 38,000  Level Denver Center
Wed 09:28:14 AM 38.6781 -108.6636 252° West 410 472 38,000  Level Denver Center
Wed 09:29:15 AM 38.6442 -108.8036 253° West 412 474 38,000  Level Denver Center
Wed 09:30:17 AM 38.6092 -108.9422 252° West 411 473 38,000  Level Denver Center
Wed 09:31:18 AM 38.5722 -109.0806 251° West 411 473 38,000  Level Denver Center
Wed 09:32:20 AM 38.5367 -109.2189 252° West 411 473 38,000  Level Denver Center
Wed 09:33:21 AM 38.5011 -109.3586 252° West 411 473 38,000  Level Denver Center
Wed 09:34:22 AM 38.4642 -109.4950 251° West 410 472 38,000  Level Denver Center
Wed 09:35:24 AM 38.4281 -109.6356 252° West 410 472 38,000  Level Denver Center
Wed 09:36:25 AM 38.3919 -109.7739 252° West 411 473 38,000  Level Denver Center
Wed 09:37:26 AM 38.3550 -109.9133 251° West 412 474 38,000  Level Denver Center
Wed 09:38:28 AM 38.3150 -110.0608 251° West 421 484 38,000  Level Denver Center
Wed 09:39:29 AM 38.2800 -110.1958 252° West 406 467 38,000  Level Denver Center
Wed 09:40:30 AM 38.2333 -110.3606 250° West 410 472 38,000 -98 Level Denver Center
Wed 09:41:32 AM 38.1978 -110.4956 252° West 407 468 37,800 -585 Descending Denver Center
Wed 09:42:33 AM 38.1608 -110.6283 251° West 400 460 36,800 -934 Descending Denver Center
Wed 09:43:34 AM 38.1250 -110.7628 251° West 402 463 35,900 -947 Descending Denver Center
Wed 09:44:46 AM 38.0814 -110.9242 251° West 403 464 34,700 -992 Descending Salt Lake Center
Wed 09:45:47 AM 38.0453 -111.0622 252° West 407 468 33,700 -976 Descending Salt Lake Center
Wed 09:46:49 AM 38.0047 -111.1942 249° West 407 468 32,700 -829 Descending Salt Lake Center
Wed 09:47:50 AM 37.9708 -111.3264 252° West 402 463 32,000 -341 Descending Salt Lake Center
Wed 09:48:52 AM 37.9322 -111.4544 249° West 396 456 32,000  Level Salt Lake Center
Wed 09:49:53 AM 37.8947 -111.5869 250° West 396 456 32,000  Level Salt Lake Center
Wed 09:50:55 AM 37.8492 -111.7467 250° West 399 459 32,000  Level Salt Lake Center
Wed 09:51:57 AM 37.8119 -111.8797 251° West 400 460 32,000  Level Salt Lake Center
Wed 09:52:58 AM 37.7744 -112.0133 250° West 401 461 32,000  Level Salt Lake Center
Wed 09:54:00 AM 37.7358 -112.1475 250° West 403 464 32,000  Level Salt Lake Center
Wed 09:55:01 AM 37.6961 -112.2811 249° West 404 465 32,000  Level Salt Lake Center
Wed 09:56:03 AM 37.6319 -112.3986 235° Southwest 407 468 32,000  Level Salt Lake Center
Wed 09:57:05 AM 37.5625 -112.5119 232° Southwest 407 468 32,000  Level Salt Lake Center
Wed 09:58:06 AM 37.4914 -112.6242 231° Southwest 407 468 32,000 -327 Level Salt Lake Center
Wed 09:58:55 AM 37.4344 -112.7158 232° Southwest 406 467 31,400 -865 Descending Los Angeles Center
Wed 09:59:57 AM 37.3633 -112.8303 232° Southwest 408 470 30,400 -683 Descending Los Angeles Center
Wed 10:00:58 AM 37.2819 -112.9647 233° Southwest 403 464 30,000 -195 Descending Los Angeles Center
Wed 10:02:00 AM 37.2389 -113.0894 247° West 401 461 30,000 -532 Level Los Angeles Center
Wed 10:03:02 AM 37.2628 -113.2258 282° West 400 460 28,900 -1,403 Descending Los Angeles Center
Wed 10:04:04 AM 37.2917 -113.3611 285° West 400 460 27,100 -1,984 Descending Los Angeles Center
Wed 10:05:06 AM 37.2597 -113.4750 251° West 378 435 24,800 -1,500 Descending Los Angeles Center
Wed 10:06:08 AM 37.1708 -113.5494 214° Southwest 382 440 24,000 -387 Descending Los Angeles Center
Wed 10:07:10 AM 37.0842 -113.6300 217° Southwest 385 443 24,000  Level Los Angeles Center
Wed 10:08:12 AM 36.9797 -113.7239 216° Southwest 385 443 24,000  Level Los Angeles Center
Wed 10:09:14 AM 36.8931 -113.8025 216° Southwest 385 443 24,000  Level Los Angeles Center
Wed 10:10:16 AM 36.8267 -113.8914 227° Southwest 385 443 24,000 -1,016 Level Los Angeles Center
Wed 10:11:18 AM 36.7514 -113.9964 228° Southwest 380 437 21,900 -1,984 Descending Los Angeles Center
Wed 10:12:20 AM 36.6831 -114.0897 228° Southwest 371 427 19,900 -1,984 Descending Los Angeles Center
Wed 10:13:22 AM 36.6144 -114.1825 227° Southwest 366 421 17,800 -2,177 Descending Los Angeles Center
Wed 10:14:24 AM 36.5364 -114.2889 228° Southwest 367 422 15,400 -2,400 Descending Los Angeles Center
Wed 10:14:37 AM 36.5178 -114.3172 231° Southwest 374 430 14,800 -2,032 Descending Los Angeles Center
Wed 10:15:26 AM 36.4672 -114.3817 226° Southwest 368 423 13,300 -2,060 Descending Los Angeles Center
Wed 10:15:44 AM 36.4442 -114.4147 229° Southwest 360 414 12,500 -1,258 Descending Los Angeles Center
Wed 10:16:28 AM 36.4000 -114.4708 226° Southwest 358 412 12,000 -590 Descending Los Angeles Center
Wed 10:16:45 AM 36.3647 -114.4847 198° South 316 364 11,900 -1,048 Descending Los Angeles Center
Wed 10:17:31 AM 36.3167 -114.4992 194° South 316 364 10,900 -1,475 Descending Los Angeles Center
Wed 10:17:46 AM 36.2817 -114.5103 194° South 311 358 10,400 -1,548 Descending Los Angeles Center
Wed 10:18:33 AM 36.2161 -114.5278 192° South 312 359 9,300 -1,343 Descending Los Angeles Center
Wed 10:18:53 AM 36.1939 -114.5344 194° South 299 344 8,900 -1,258 Descending Los Angeles Center
Wed 10:19:35 AM 36.1375 -114.5497 192° South 297 342 8,000 -982 Descending Los Angeles Center
Wed 10:19:48 AM 36.1242 -114.5608 214° Southwest 280 322 8,000  Level Los Angeles Center
Wed 10:20:37 AM 36.1017 -114.6206 245° Southwest 257 296 8,000  Level Los Angeles Center
Wed 10:21:01 AM 36.0936 -114.6564 254° West 239 275 8,000  Level Los Angeles Center
Wed 10:21:39 AM 36.0806 -114.6986 249° West 244 281 8,000 -98 Level Los Angeles Center
Wed 10:22:02 AM 36.0719 -114.7356 254° West 244 281 7,900 -677 Descending Los Angeles Center
Wed 10:22:41 AM 36.0694 -114.7814 266° West 244 281 7,300 -984 Descending Los Angeles Center
Wed 10:23:03 AM 36.0725 -114.8156 276° West 237 273 6,900 -774 Descending Los Angeles Center
Wed 10:23:43 AM 36.0728 -114.8619 270° West 242 278 6,500 -764 Descending Los Angeles Center
Wed 10:23:58 AM 36.0731 -114.8872 271° West 223 257 6,200 -1,333 Descending Los Angeles Center
Wed 10:24:46 AM 36.0733 -114.9411 270° West 200 230 5,100 -1,255 Descending Los Angeles Center
Wed 10:25:48 AM 36.0736 -115.0028 270° West 185 213 3,900 -1,033 Descending Los Angeles Center
Wed 10:26:48 AM 36.0719 -115.0606 268° West 159 183 3,000 -803 Descending Los Angeles Center
Wed 10:27:55 AM 36.0733 -115.1158 272° West 136 157 2,200 -716 Descending Los Angeles Center
Wed 10:29:00 AM 36.0667 -115.1500 219° Southwest  Level FlightAware Approximate
Wed 10:36:00 AM 36.0801 -115.1523 219° Southwest  Level Estimated

Login

Don't have an account? Register now (free) for customized features, flight alerts, and more!